Time;durP1;ratioP1;P1;durP2;ratioP2;P2;SDS_P1;SDS_P2;PMS_P1;PMS_P2;Temp;Humidity;BMP_temperature;BMP_pressure;BME280_temperature;BME280_humidity;BME280_pressure;Samples;Min_cycle;Max_cycle;Signal;HPM_P1;HPM_P2
2021/07/09 00:10:12;;;;;;;;;;;;;;;20.22;75.02;99891.26;515589;1088;103008;-62
2021/07/09 00:20:17;;;;;;;;;;;;;;;19.79;76.21;99791.59;528807;1088;103661;-62
2021/07/09 00:30:22;;;;;;;;;;;;;;;19.51;77.69;99711.77;532286;1088;103325;-63
2021/07/09 00:40:27;;;;;;;;;;;;;;;19.28;78.04;99733.56;532948;1089;102046;-62
2021/07/09 00:50:32;;;;;;;;;;;;;;;19.49;78.62;99679.98;532879;1088;103497;-62
2021/07/09 01:00:37;;;;;;;;;;;;;;;19.51;78.73;99626.55;532268;1088;102159;-63
2021/07/09 01:10:43;;;;;;;;;;;;;;;19.56;78.69;99582.48;532892;1088;102105;-63
2021/07/09 01:20:48;;;;;;;;;;;;;;;19.52;78.88;99578.48;532295;1088;103214;-62
2021/07/09 01:30:52;;;;;;;;;;;;;;;19.53;79.18;99558.84;532881;1088;103327;-62
2021/07/09 01:40:57;;;;;;;;;;;;;;;19.56;79.13;99542.55;532920;1088;103007;-63
2021/07/09 01:51:02;;;;;;;;;;;;;;;19.61;79.24;99526.09;532232;1088;103043;-63
2021/07/09 02:01:07;;;;;;;;;;;;;;;19.53;78.89;99494.94;532863;1089;102356;-62
2021/07/09 02:11:12;;;;;;;;;;;;;;;19.50;79.23;99473.11;532946;1089;104409;-63
2021/07/09 02:21:17;;;;;;;;;;;;;;;19.39;78.96;99463.59;531901;1088;102495;-62
2021/07/09 02:31:24;;;;;;;;;;;;;;;19.28;79.73;99464.71;532839;1089;103194;-62
2021/07/09 02:41:30;;;;;;;;;;;;;;;19.13;79.71;99453.81;532814;1088;101960;-62
2021/07/09 02:51:35;;;;;;;;;;;;;;;18.98;80.15;99459.66;532155;1088;103200;-63
2021/07/09 03:01:41;;;;;;;;;;;;;;;18.98;80.16;99461.50;532947;1089;102608;-62
2021/07/09 03:11:46;;;;;;;;;;;;;;;19.02;80.16;99474.37;532465;1089;103556;-64
2021/07/09 03:21:51;;;;;;;;;;;;;;;19.29;80.47;99477.84;532851;1088;101905;-62
2021/07/09 03:31:56;;;;;;;;;;;;;;;19.88;79.22;99498.41;532823;1088;103277;-63
2021/07/09 03:42:01;;;;;;;;;;;;;;;20.28;78.44;99505.89;532261;1089;103066;-63
2021/07/09 03:52:06;;;;;;;;;;;;;;;20.53;77.72;99493.40;532839;1087;103044;-63
2021/07/09 04:02:11;;;;;;;;;;;;;;;20.78;76.73;99492.58;532903;1087;102929;-63
2021/07/09 04:12:16;;;;;;;;;;;;;;;21.37;75.49;99495.03;532078;1089;103396;-62
2021/07/09 04:22:21;;;;;;;;;;;;;;;21.27;74.81;99495.20;532848;1089;101788;-62
2021/07/09 04:32:26;;;;;;;;;;;;;;;20.72;74.99;99486.92;532885;1088;103248;-63
2021/07/09 04:42:30;;;;;;;;;;;;;;;20.37;76.13;99491.55;532254;1089;102373;-63
2021/07/09 04:52:36;;;;;;;;;;;;;;;20.30;76.57;99469.23;532905;1089;103415;-63
2021/07/09 05:02:41;;;;;;;;;;;;;;;20.25;76.72;99460.88;532848;1089;102373;-62
2021/07/09 05:12:46;;;;;;;;;;;;;;;20.68;76.99;99437.55;532203;1089;102391;-63
2021/07/09 05:22:50;;;;;;;;;;;;;;;20.61;76.48;99449.07;532830;1089;102222;-62
2021/07/09 05:32:56;;;;;;;;;;;;;;;20.35;77.61;99458.89;532300;1088;103179;-63
2021/07/09 05:43:01;;;;;;;;;;;;;;;20.33;77.72;99494.73;532862;1088;102710;-63
2021/07/09 05:53:07;;;;;;;;;;;;;;;20.33;78.52;99495.55;532827;1089;103591;-66
2021/07/09 06:03:11;;;;;;;;;;;;;;;20.40;78.46;99466.39;532080;1088;102641;-62
2021/07/09 06:13:17;;;;;;;;;;;;;;;20.49;78.72;99517.89;532876;1088;104287;-64
2021/07/09 06:23:22;;;;;;;;;;;;;;;20.37;79.08;99686.20;521351;1088;102498;-63
2021/07/09 06:33:26;;;;;;;;;;;;;;;20.20;79.72;99695.98;520860;1088;102670;-64
2021/07/09 06:43:31;;;;;;;;;;;;;;;20.29;80.25;99705.66;532879;1089;102042;-64
2021/07/09 06:53:36;;;;;;;;;;;;;;;20.43;80.28;99676.72;532920;1089;102118;-64
2021/07/09 07:03:41;;;;;;;;;;;;;;;20.69;80.13;99670.49;532284;1089;101656;-64
2021/07/09 07:13:46;;;;;;;;;;;;;;;20.98;80.09;99666.57;528580;1088;103311;-63
2021/07/09 07:23:51;;;;;;;;;;;;;;;21.18;79.71;99631.56;530550;1088;102532;-63
2021/07/09 07:33:55;;;;;;;;;;;;;;;21.43;79.27;99597.67;532983;1088;104591;-64
2021/07/09 07:44:00;;;;;;;;;;;;;;;22.29;79.39;99558.83;532879;1089;102027;-64
2021/07/09 07:54:05;;;;;;;;;;;;;;;30.92;70.18;99509.91;532190;1089;103865;-64
2021/07/09 08:04:10;;;;;;;;;;;;;;;31.22;61.56;99505.41;532893;1090;102854;-64
2021/07/09 08:14:15;;;;;;;;;;;;;;;31.51;58.65;99489.23;532868;1089;103930;-64
2021/07/09 08:24:21;;;;;;;;;;;;;;;32.03;57.41;99474.79;532257;1088;102513;-64
2021/07/09 08:34:26;;;;;;;;;;;;;;;32.13;55.33;99455.97;532404;1089;102245;-64
2021/07/09 08:44:31;;;;;;;;;;;;;;;32.41;54.67;99473.33;514987;1089;10001469;-64
2021/07/09 08:54:36;;;;;;;;;;;;;;;32.93;52.91;99485.01;532026;1088;102524;-69
2021/07/09 09:04:45;;;;;;;;;;;;;;;32.68;52.28;99496.31;532692;1089;102286;-70
2021/07/09 09:14:51;;;;;;;;;;;;;;;32.98;52.00;99501.41;532032;1088;103505;-69
2021/07/09 09:24:59;;;;;;;;;;;;;;;33.40;50.36;99496.52;532747;1089;103156;-68
2021/07/09 09:35:04;;;;;;;;;;;;;;;33.28;50.79;99484.93;532794;1088;102090;-69
2021/07/09 09:45:09;;;;;;;;;;;;;;;32.39;50.75;99456.45;532091;1088;103094;-69
2021/07/09 09:55:15;;;;;;;;;;;;;;;31.70;51.30;99460.86;532828;1089;102585;-69
2021/07/09 10:05:21;;;;;;;;;;;;;;;31.38;51.60;99455.08;532688;1089;102057;-70
2021/07/09 10:15:27;;;;;;;;;;;;;;;30.85;52.25;99444.14;532125;1088;102928;-70
2021/07/09 10:25:32;;;;;;;;;;;;;;;30.53;53.06;99445.29;524848;1088;102623;-70
2021/07/09 10:35:41;;;;;;;;;;;;;;;30.54;52.33;99456.96;532808;1088;103354;-69
2021/07/09 10:45:47;;;;;;;;;;;;;;;30.65;52.30;99437.22;532293;1087;103309;-70
2021/07/09 10:55:53;;;;;;;;;;;;;;;31.21;51.28;99425.13;531985;1088;103136;-69
2021/07/09 11:05:59;;;;;;;;;;;;;;;31.48;50.52;99433.59;531142;1089;102130;-68
2021/07/09 11:16:18;;;;;;;;;;;;;;;31.73;49.58;99432.42;532935;1088;102489;-69
2021/07/09 11:26:29;;;;;;;;;;;;;;;31.96;48.10;99431.50;523805;1089;10001516;-70
2021/07/09 11:36:41;;;;;;;;;;;;;;;31.93;47.69;99420.34;532088;1088;102156;-70
2021/07/09 11:46:49;;;;;;;;;;;;;;;32.18;47.55;99408.27;532754;1088;102599;-70
2021/07/09 11:56:55;;;;;;;;;;;;;;;32.43;47.15;99411.41;532120;1088;103590;-70
2021/07/09 12:07:18;;;;;;;;;;;;;;;32.22;46.96;99414.84;532725;1088;102882;-71
2021/07/09 12:17:23;;;;;;;;;;;;;;;32.61;46.20;99412.23;532804;1088;102296;-69
2021/07/09 12:27:29;;;;;;;;;;;;;;;31.90;45.61;99380.09;532165;1089;102672;-69
2021/07/09 12:37:34;;;;;;;;;;;;;;;32.37;45.92;99387.13;516690;1088;103616;-69
2021/07/09 12:47:52;;;;;;;;;;;;;;;31.83;46.15;99385.67;530679;1088;103442;-69
2021/07/09 12:58:07;;;;;;;;;;;;;;;30.85;47.54;99308.64;532747;1090;102202;-68
2021/07/09 13:08:20;;;;;;;;;;;;;;;29.97;49.74;99255.23;525145;1089;102845;-69
2021/07/09 13:18:27;;;;;;;;;;;;;;;29.30;51.80;99306.56;520871;1088;103648;-70
2021/07/09 13:28:51;;;;;;;;;;;;;;;28.50;53.71;99300.20;532855;1089;102044;-69
2021/07/09 13:38:56;;;;;;;;;;;;;;;27.87;55.41;99364.05;532165;1088;102520;-69
2021/07/09 13:49:03;;;;;;;;;;;;;;;27.32;57.98;99389.60;532901;1088;102548;-69
2021/07/09 13:59:08;;;;;;;;;;;;;;;27.08;59.45;99370.41;532914;1090;101772;-68
2021/07/09 14:09:13;;;;;;;;;;;;;;;26.15;61.30;99427.60;532238;1089;103070;-68
2021/07/09 14:19:18;;;;;;;;;;;;;;;24.16;59.62;99688.91;523257;1089;102830;-69
2021/07/09 14:29:24;;;;;;;;;;;;;;;21.91;61.95;99637.01;514929;1088;10001424;-69
2021/07/09 14:39:28;;;;;;;;;;;;;;;21.15;64.10;99541.95;532122;1090;102910;-68
2021/07/09 14:49:33;;;;;;;;;;;;;;;20.62;65.63;99478.25;531555;1088;102852;-68
2021/07/09 14:59:57;;;;;;;;;;;;;;;20.37;67.20;99418.74;532092;1088;102282;-69
2021/07/09 15:10:03;;;;;;;;;;;;;;;20.04;68.55;99424.04;532746;1089;103239;-68
2021/07/09 15:20:09;;;;;;;;;;;;;;;19.96;69.39;99388.38;532767;1088;102099;-68
2021/07/09 15:30:15;;;;;;;;;;;;;;;19.92;69.64;99368.37;524452;1088;103136;-67
2021/07/09 15:40:33;;;;;;;;;;;;;;;20.01;69.97;99364.75;532799;1087;102865;-68
2021/07/09 15:50:38;;;;;;;;;;;;;;;19.88;70.76;99396.34;532749;1089;101809;-68
2021/07/09 16:00:43;;;;;;;;;;;;;;;19.87;71.48;99413.34;532114;1089;102877;-67
2021/07/09 16:10:48;;;;;;;;;;;;;;;19.92;72.36;99415.52;532778;1088;102423;-67
2021/07/09 16:20:53;;;;;;;;;;;;;;;19.87;72.75;99405.34;532087;1090;103375;-66
2021/07/09 16:30:58;;;;;;;;;;;;;;;19.73;72.88;99398.81;529681;1089;102457;-68
2021/07/09 16:41:03;;;;;;;;;;;;;;;19.71;73.07;99355.53;532796;1088;102368;-67
2021/07/09 16:51:07;;;;;;;;;;;;;;;19.77;72.54;99386.00;532181;1088;103887;-69
2021/07/09 17:01:12;;;;;;;;;;;;;;;20.00;72.90;99381.73;532936;1089;102713;-69
2021/07/09 17:11:17;;;;;;;;;;;;;;;20.16;73.60;99364.93;532990;1088;102404;-69
2021/07/09 17:21:23;;;;;;;;;;;;;;;20.49;72.83;99377.41;532292;1089;102382;-69
2021/07/09 17:31:28;;;;;;;;;;;;;;;20.72;72.39;99380.22;523364;1090;103173;-68
2021/07/09 17:41:33;;;;;;;;;;;;;;;20.86;72.06;99383.22;532881;1088;102084;-68
2021/07/09 17:51:38;;;;;;;;;;;;;;;20.74;71.16;99395.22;532292;1088;103614;-68
2021/07/09 18:01:58;;;;;;;;;;;;;;;20.25;72.61;99424.41;529690;1088;102143;-68
2021/07/09 18:12:04;;;;;;;;;;;;;;;19.97;73.32;99422.05;514247;1089;10001834;-66
2021/07/09 18:22:08;;;;;;;;;;;;;;;19.76;73.77;99393.15;532624;1087;104199;-66
2021/07/09 18:32:13;;;;;;;;;;;;;;;19.56;73.94;99409.39;532725;1089;101672;-68
2021/07/09 18:42:19;;;;;;;;;;;;;;;19.39;74.72;99432.49;532064;1088;102639;-67
2021/07/09 18:52:24;;;;;;;;;;;;;;;19.28;75.28;99443.42;532781;1088;102246;-67
2021/07/09 19:02:29;;;;;;;;;;;;;;;19.14;75.94;99474.11;532826;1088;102429;-67
2021/07/09 19:12:40;;;;;;;;;;;;;;;19.03;76.88;99459.22;532089;1089;101959;-60
2021/07/09 19:22:45;;;;;;;;;;;;;;;19.09;77.07;99466.59;532722;1089;103028;-60
2021/07/09 19:32:51;;;;;;;;;;;;;;;19.07;77.14;99499.66;532031;1089;103593;-60
2021/07/09 19:42:58;;;;;;;;;;;;;;;19.08;77.09;99496.86;532659;1089;103279;-61
2021/07/09 19:53:05;;;;;;;;;;;;;;;19.09;77.48;99495.02;530799;1090;102629;-59
2021/07/09 20:03:10;;;;;;;;;;;;;;;19.07;77.59;99497.85;532189;1089;102726;-59
2021/07/09 20:13:16;;;;;;;;;;;;;;;19.16;77.24;99496.07;532718;1088;101973;-60
2021/07/09 20:23:21;;;;;;;;;;;;;;;19.20;77.77;99497.41;532819;1088;102366;-62
2021/07/09 20:33:26;;;;;;;;;;;;;;;19.28;77.47;99486.83;532150;1088;102184;-61
2021/07/09 20:43:37;;;;;;;;;;;;;;;19.29;77.85;99485.02;532728;1088;102935;-61
2021/07/09 20:53:55;;;;;;;;;;;;;;;19.09;77.69;99474.58;524700;1088;104402;-60
2021/07/09 21:04:00;;;;;;;;;;;;;;;18.91;78.08;99462.11;532832;1087;102368;-60
2021/07/09 21:14:05;;;;;;;;;;;;;;;18.79;78.66;99470.52;532845;1089;102275;-60
2021/07/09 21:24:10;;;;;;;;;;;;;;;18.76;79.01;99459.20;532138;1087;102484;-61
2021/07/09 21:34:15;;;;;;;;;;;;;;;18.70;79.28;99441.19;532684;1089;103728;-60
2021/07/09 21:44:20;;;;;;;;;;;;;;;18.63;79.30;99433.00;532770;1087;102344;-61
2021/07/09 21:54:34;;;;;;;;;;;;;;;18.59;79.95;99462.70;532132;1088;102314;-61
2021/07/09 22:04:40;;;;;;;;;;;;;;;18.57;80.12;99483.30;532676;1089;102649;-61
2021/07/09 22:14:44;;;;;;;;;;;;;;;18.54;80.83;99484.44;532697;1089;103843;-60
2021/07/09 22:24:49;;;;;;;;;;;;;;;18.60;80.57;99501.60;532746;1087;102258;-60
2021/07/09 22:34:55;;;;;;;;;;;;;;;18.60;80.72;99499.80;525047;1088;102605;-65
2021/07/09 22:45:00;;;;;;;;;;;;;;;18.68;81.19;99491.05;520150;1088;102216;-64
2021/07/09 22:55:06;;;;;;;;;;;;;;;18.74;81.11;99503.71;532926;1089;102632;-64
2021/07/09 23:05:12;;;;;;;;;;;;;;;18.86;81.49;99492.83;520803;1088;10000951;-62
2021/07/09 23:15:17;;;;;;;;;;;;;;;18.98;81.53;99485.44;529252;1088;103318;-59
2021/07/09 23:25:23;;;;;;;;;;;;;;;19.07;81.75;99476.56;532616;1088;103139;-60
2021/07/09 23:35:28;;;;;;;;;;;;;;;19.11;81.48;99479.75;532726;1088;102629;-60
2021/07/09 23:45:33;;;;;;;;;;;;;;;19.18;81.49;99478.96;531954;1088;101878;-60
2021/07/09 23:55:38;;;;;;;;;;;;;;;19.23;81.27;99493.61;532624;1089;102074;-60
